Time;durP1;ratioP1;P1;durP2;ratioP2;P2;SDS_P1;SDS_P2;PMS_P1;PMS_P2;Temp;Humidity;BMP_temperature;BMP_pressure;BME280_temperature;BME280_humidity;BME280_pressure;Samples;Min_cycle;Max_cycle;Signal;HPM_P1;HPM_P2
2023/06/06 00:00:14;;;;;;;;;;;;;;;13.14;100.00;102009.59;4959855;28;19951;-72
2023/06/06 00:02:42;;;;;;;;;;;;;;;13.10;100.00;102010.78;4974278;28;19949;-72
2023/06/06 00:05:08;;;;;;;;;;;;;;;13.08;100.00;102008.19;4982373;28;19960;-72
2023/06/06 00:07:34;;;;;;;;;;;;;;;13.14;100.00;102018.53;4967948;28;20587;-74
2023/06/06 00:10:00;;;;;;;;;;;;;;;13.08;100.00;102018.09;4972569;28;19922;-73
2023/06/06 00:12:25;;;;;;;;;;;;;;;13.01;100.00;102012.28;4960778;28;19922;-74
2023/06/06 00:14:50;;;;;;;;;;;;;;;13.00;100.00;102014.09;4967513;28;19956;-74
2023/06/06 00:17:17;;;;;;;;;;;;;;;12.89;100.00;102011.31;4969049;28;19933;-74
2023/06/06 00:19:42;;;;;;;;;;;;;;;12.84;100.00;102005.34;4960943;28;20364;-74
2023/06/06 00:22:08;;;;;;;;;;;;;;;12.80;100.00;102009.22;4961517;28;20594;-74
2023/06/06 00:24:33;;;;;;;;;;;;;;;12.76;100.00;102011.28;4964226;28;19929;-74
2023/06/06 00:26:58;;;;;;;;;;;;;;;12.75;100.00;102012.25;4963283;28;20383;-73
2023/06/06 00:29:23;;;;;;;;;;;;;;;12.71;100.00;102008.03;4956890;28;20033;-74
2023/06/06 00:31:49;;;;;;;;;;;;;;;12.65;100.00;102009.31;4972275;28;19917;-73
2023/06/06 00:34:14;;;;;;;;;;;;;;;12.59;100.00;102009.72;4961307;28;20000;-75
2023/06/06 00:36:39;;;;;;;;;;;;;;;12.70;100.00;102017.09;4978018;28;20494;-74
2023/06/06 00:39:05;;;;;;;;;;;;;;;12.70;100.00;102009.88;4964873;28;19922;-73
2023/06/06 00:41:30;;;;;;;;;;;;;;;12.72;100.00;102013.31;4959597;28;19918;-71
2023/06/06 00:43:55;;;;;;;;;;;;;;;12.67;100.00;102012.78;4962424;28;20040;-74
2023/06/06 00:46:20;;;;;;;;;;;;;;;12.51;100.00;102022.84;4960355;28;19918;-73
2023/06/06 00:48:46;;;;;;;;;;;;;;;12.42;100.00;102017.13;4970659;28;19928;-73
2023/06/06 00:51:11;;;;;;;;;;;;;;;12.38;100.00;102012.03;4974396;28;19925;-73
2023/06/06 00:53:37;;;;;;;;;;;;;;;12.35;100.00;102025.69;4980313;28;20032;-73
2023/06/06 00:56:02;;;;;;;;;;;;;;;12.40;100.00;102024.44;4975230;28;19921;-73
2023/06/06 00:58:28;;;;;;;;;;;;;;;12.33;100.00;102023.13;4959085;28;19922;-73
2023/06/06 01:00:53;;;;;;;;;;;;;;;12.36;100.00;102025.63;4963607;28;19913;-74
2023/06/06 01:03:20;;;;;;;;;;;;;;;12.29;100.00;102018.91;4971655;28;19973;-73
2023/06/06 01:05:46;;;;;;;;;;;;;;;12.26;100.00;102028.06;4980105;28;19921;-73
2023/06/06 01:08:12;;;;;;;;;;;;;;;12.16;100.00;102029.63;4970243;28;19928;-73
2023/06/06 01:10:39;;;;;;;;;;;;;;;11.98;100.00;102034.34;4981315;28;19929;-73
2023/06/06 01:13:07;;;;;;;;;;;;;;;11.98;100.00;102027.16;4967546;28;20102;-74
2023/06/06 01:15:41;;;;;;;;;;;;;;;12.02;100.00;102024.28;4965517;28;19949;-74
2023/06/06 01:18:06;;;;;;;;;;;;;;;12.04;100.00;102016.97;4957292;28;19922;-73
2023/06/06 01:20:32;;;;;;;;;;;;;;;11.97;100.00;102024.53;4967719;28;19964;-73
2023/06/06 01:22:57;;;;;;;;;;;;;;;11.90;100.00;102015.16;4961436;28;19937;-73
2023/06/06 01:25:23;;;;;;;;;;;;;;;11.84;100.00;102017.28;4965150;28;19932;-75
2023/06/06 01:27:53;;;;;;;;;;;;;;;11.83;100.00;102015.53;4960245;28;19985;-72
2023/06/06 01:30:18;;;;;;;;;;;;;;;11.88;100.00;102019.78;4971984;28;19922;-73
2023/06/06 01:32:59;;;;;;;;;;;;;;;11.78;100.00;102014.97;4973487;28;20404;-73
2023/06/06 01:35:35;;;;;;;;;;;;;;;11.78;100.00;102009.59;4971533;28;19925;-74
2023/06/06 01:38:09;;;;;;;;;;;;;;;11.80;100.00;102004.09;4958487;28;19922;-73
2023/06/06 01:40:34;;;;;;;;;;;;;;;11.74;100.00;102009.91;4962201;28;20003;-74
2023/06/06 01:43:00;;;;;;;;;;;;;;;11.75;100.00;102011.63;4957913;28;20045;-74
2023/06/06 01:45:27;;;;;;;;;;;;;;;11.72;100.00;102007.28;4964900;28;19925;-74
2023/06/06 01:47:52;;;;;;;;;;;;;;;11.70;100.00;102012.78;4968353;28;20112;-73
2023/06/06 01:50:17;;;;;;;;;;;;;;;11.68;100.00;102016.50;4964018;28;20201;-73
2023/06/06 01:52:43;;;;;;;;;;;;;;;11.62;100.00;102015.09;4961738;28;19922;-75
2023/06/06 01:55:08;;;;;;;;;;;;;;;11.61;100.00;102009.81;4968755;28;19928;-73
2023/06/06 01:57:33;;;;;;;;;;;;;;;11.56;100.00;102015.47;4956466;28;19922;-73
2023/06/06 01:59:59;;;;;;;;;;;;;;;11.49;100.00;102016.84;4967982;28;20329;-73
2023/06/06 02:02:24;;;;;;;;;;;;;;;11.47;100.00;102010.69;4958122;28;20385;-73
2023/06/06 02:04:50;;;;;;;;;;;;;;;11.42;100.00;102013.66;4966827;28;19921;-74
2023/06/06 02:07:16;;;;;;;;;;;;;;;11.44;100.00;102011.72;4960510;28;19957;-73
2023/06/06 02:09:41;;;;;;;;;;;;;;;11.40;100.00;102019.13;4977673;28;20150;-73
2023/06/06 02:12:07;;;;;;;;;;;;;;;11.36;100.00;102016.75;4982728;28;19922;-73
2023/06/06 02:14:32;;;;;;;;;;;;;;;11.25;100.00;102018.25;4960997;28;19922;-73
2023/06/06 02:16:58;;;;;;;;;;;;;;;11.27;100.00;102015.47;4962234;28;19933;-73
2023/06/06 02:19:23;;;;;;;;;;;;;;;11.15;100.00;102017.09;4983799;28;19921;-73
2023/06/06 02:21:50;;;;;;;;;;;;;;;11.09;100.00;102020.19;4957115;28;19956;-73
2023/06/06 02:24:15;;;;;;;;;;;;;;;11.08;100.00;102016.59;4961974;28;19953;-73
2023/06/06 02:26:41;;;;;;;;;;;;;;;11.05;100.00;102011.41;4969560;28;20361;-74
2023/06/06 02:29:06;;;;;;;;;;;;;;;11.04;100.00;102020.44;4960942;28;20169;-73
2023/06/06 02:31:32;;;;;;;;;;;;;;;11.00;100.00;102016.19;4964732;28;19921;-74
2023/06/06 02:33:57;;;;;;;;;;;;;;;10.97;100.00;102016.41;4960051;28;19929;-74
2023/06/06 02:36:22;;;;;;;;;;;;;;;10.91;100.00;102016.78;4960243;28;19922;-73
2023/06/06 02:38:47;;;;;;;;;;;;;;;10.88;100.00;102015.13;4960510;28;19980;-73
2023/06/06 02:41:13;;;;;;;;;;;;;;;10.92;100.00;102008.63;4957854;28;20004;-73
2023/06/06 02:43:40;;;;;;;;;;;;;;;10.99;100.00;102006.41;4955994;28;19926;-73
2023/06/06 02:46:07;;;;;;;;;;;;;;;11.01;100.00;102009.03;4954769;28;20375;-73
2023/06/06 02:48:32;;;;;;;;;;;;;;;10.99;100.00;102014.47;4957521;28;20409;-74
2023/06/06 02:50:57;;;;;;;;;;;;;;;10.90;100.00;102009.69;4957236;28;19927;-74
2023/06/06 02:53:23;;;;;;;;;;;;;;;10.79;100.00;102018.38;4969239;28;19938;-73
2023/06/06 02:55:48;;;;;;;;;;;;;;;10.79;100.00;102013.00;4959714;28;19922;-74
2023/06/06 02:58:29;;;;;;;;;;;;;;;10.84;100.00;102013.59;4966268;28;20396;-73
2023/06/06 03:00:57;;;;;;;;;;;;;;;10.83;100.00;102013.69;4972281;28;20653;-74
2023/06/06 03:03:26;;;;;;;;;;;;;;;10.80;100.00;102028.19;4961679;28;20040;-74
2023/06/06 03:05:51;;;;;;;;;;;;;;;10.75;100.00;102016.84;4955615;28;19922;-74
2023/06/06 03:08:17;;;;;;;;;;;;;;;10.72;100.00;102019.69;4973202;28;20399;-73
2023/06/06 03:10:46;;;;;;;;;;;;;;;10.68;100.00;102018.16;4970731;28;19921;-73
2023/06/06 03:13:12;;;;;;;;;;;;;;;10.64;100.00;102022.84;4970562;28;19921;-73
2023/06/06 03:15:37;;;;;;;;;;;;;;;10.62;100.00;102022.06;4964318;28;20379;-73
2023/06/06 03:18:02;;;;;;;;;;;;;;;10.68;100.00;102021.72;4957827;28;20004;-74
2023/06/06 03:20:30;;;;;;;;;;;;;;;10.67;100.00;102019.09;4966105;28;20032;-73
2023/06/06 03:22:55;;;;;;;;;;;;;;;10.64;100.00;102023.69;4960212;28;19930;-73
2023/06/06 03:25:21;;;;;;;;;;;;;;;10.63;100.00;102026.50;4962704;28;19922;-74
2023/06/06 03:27:48;;;;;;;;;;;;;;;10.57;100.00;102022.34;4952141;28;20345;-73
2023/06/06 03:30:14;;;;;;;;;;;;;;;10.56;100.00;102023.31;4960650;28;19922;-74
2023/06/06 03:32:39;;;;;;;;;;;;;;;10.50;100.00;102020.97;4967253;28;19985;-74
2023/06/06 03:35:05;;;;;;;;;;;;;;;10.54;100.00;102018.97;4955602;28;20004;-74
2023/06/06 03:37:30;;;;;;;;;;;;;;;10.50;100.00;102021.84;4967177;28;20011;-73
2023/06/06 03:39:55;;;;;;;;;;;;;;;10.55;100.00;102026.06;4974469;28;20374;-73
2023/06/06 03:42:20;;;;;;;;;;;;;;;10.59;100.00;102027.63;4971678;28;19996;-72
2023/06/06 03:44:46;;;;;;;;;;;;;;;10.44;100.00;102027.59;4955281;28;19934;-73
2023/06/06 03:47:11;;;;;;;;;;;;;;;10.46;100.00;102024.78;4974839;28;19921;-73
2023/06/06 03:49:37;;;;;;;;;;;;;;;10.42;100.00;102026.81;4979361;28;20369;-73
2023/06/06 03:52:03;;;;;;;;;;;;;;;10.38;100.00;102030.59;4957474;28;20737;-73
2023/06/06 03:54:28;;;;;;;;;;;;;;;10.48;100.00;102030.94;4965678;28;20021;-73
2023/06/06 03:56:54;;;;;;;;;;;;;;;10.53;100.00;102031.53;4966094;28;20612;-73
2023/06/06 03:59:19;;;;;;;;;;;;;;;10.50;100.00;102023.66;4952509;28;19922;-73
2023/06/06 04:01:44;;;;;;;;;;;;;;;10.48;100.00;102028.25;4966954;28;19926;-73
2023/06/06 04:04:13;;;;;;;;;;;;;;;10.46;100.00;102025.66;4954756;28;20167;-73
2023/06/06 04:06:39;;;;;;;;;;;;;;;10.47;100.00;102030.06;4967136;28;19966;-73
2023/06/06 04:09:08;;;;;;;;;;;;;;;10.52;100.00;102028.94;4956301;28;19921;-73
2023/06/06 04:11:33;;;;;;;;;;;;;;;10.60;100.00;102026.66;4969116;28;20361;-73
2023/06/06 04:13:58;;;;;;;;;;;;;;;10.60;100.00;102024.84;4954862;28;19926;-73
2023/06/06 04:16:23;;;;;;;;;;;;;;;10.71;100.00;102028.72;4960549;28;20206;-73
2023/06/06 04:18:52;;;;;;;;;;;;;;;10.76;100.00;102037.38;4958811;28;20325;-75
2023/06/06 04:21:17;;;;;;;;;;;;;;;10.79;100.00;102027.28;4957428;28;19922;-73
2023/06/06 04:23:42;;;;;;;;;;;;;;;10.85;100.00;102038.63;4959464;28;19933;-74
2023/06/06 04:26:10;;;;;;;;;;;;;;;10.87;100.00;102034.88;4969657;28;19961;-73
2023/06/06 04:28:35;;;;;;;;;;;;;;;10.88;100.00;102031.25;4967282;28;19933;-73
2023/06/06 04:31:00;;;;;;;;;;;;;;;10.96;100.00;102022.75;4962364;28;19961;-74
2023/06/06 04:33:29;;;;;;;;;;;;;;;10.98;100.00;102028.91;4960640;28;19961;-73
2023/06/06 04:35:57;;;;;;;;;;;;;;;10.99;100.00;102024.38;4965378;28;20218;-71
2023/06/06 04:38:23;;;;;;;;;;;;;;;11.08;100.00;102024.66;4961623;28;19922;-74
2023/06/06 04:40:50;;;;;;;;;;;;;;;11.19;100.00;102028.53;4964424;28;19925;-73
2023/06/06 04:43:17;;;;;;;;;;;;;;;11.24;100.00;102034.50;4957317;28;19930;-73
2023/06/06 04:45:45;;;;;;;;;;;;;;;11.31;100.00;102033.13;4974714;28;20436;-73
2023/06/06 04:48:12;;;;;;;;;;;;;;;11.24;100.00;102032.66;4975745;28;19922;-73
2023/06/06 04:50:38;;;;;;;;;;;;;;;11.28;100.00;102033.31;4955982;28;19929;-73
2023/06/06 04:53:03;;;;;;;;;;;;;;;11.43;100.00;102031.50;4957648;28;19921;-74
2023/06/06 04:55:28;;;;;;;;;;;;;;;11.49;100.00;102023.06;4954396;28;20004;-73
2023/06/06 04:57:55;;;;;;;;;;;;;;;11.60;100.00;102029.59;4955480;28;20041;-74
2023/06/06 05:00:21;;;;;;;;;;;;;;;11.62;100.00;102020.47;4956125;28;19929;-73
2023/06/06 05:02:48;;;;;;;;;;;;;;;11.64;100.00;102028.44;4952500;28;19985;-72
2023/06/06 05:05:16;;;;;;;;;;;;;;;11.70;100.00;102028.91;4956977;28;19928;-73
2023/06/06 05:07:41;;;;;;;;;;;;;;;11.74;100.00;102017.97;4970552;28;19929;-74
2023/06/06 05:10:07;;;;;;;;;;;;;;;11.82;100.00;102018.31;4957182;28;19922;-73
2023/06/06 05:12:32;;;;;;;;;;;;;;;11.92;100.00;102030.22;4950343;28;19962;-74
2023/06/06 05:14:57;;;;;;;;;;;;;;;12.02;100.00;102035.06;4958077;28;19918;-73
2023/06/06 05:17:23;;;;;;;;;;;;;;;11.89;100.00;102026.88;4956868;28;19926;-73
2023/06/06 05:19:48;;;;;;;;;;;;;;;11.97;100.00;102032.59;4953757;28;19929;-73
2023/06/06 05:22:14;;;;;;;;;;;;;;;11.99;100.00;102020.84;4949894;28;19922;-74
2023/06/06 05:24:40;;;;;;;;;;;;;;;12.17;100.00;102028.66;4957913;28;21744;-73
2023/06/06 05:27:05;;;;;;;;;;;;;;;12.32;100.00;102037.56;4950352;28;20017;-73
2023/06/06 05:29:31;;;;;;;;;;;;;;;12.38;100.00;102030.88;4949172;28;19926;-74
2023/06/06 05:31:56;;;;;;;;;;;;;;;12.32;100.00;102026.78;4962510;28;19929;-74
2023/06/06 05:34:21;;;;;;;;;;;;;;;12.43;100.00;102029.63;4960470;28;19921;-74
2023/06/06 05:36:46;;;;;;;;;;;;;;;12.38;100.00;102026.38;4963708;28;20292;-73
2023/06/06 05:39:12;;;;;;;;;;;;;;;12.45;100.00;102030.38;4958327;28;20357;-72
2023/06/06 05:41:37;;;;;;;;;;;;;;;12.64;100.00;102031.84;4950359;28;19926;-73
2023/06/06 05:44:02;;;;;;;;;;;;;;;12.68;100.00;102035.19;4958254;28;19922;-73
2023/06/06 05:46:27;;;;;;;;;;;;;;;12.68;100.00;102038.75;4962353;28;19922;-73
2023/06/06 05:48:52;;;;;;;;;;;;;;;12.69;100.00;102028.81;4951263;28;19969;-72
2023/06/06 05:51:18;;;;;;;;;;;;;;;12.87;100.00;102030.25;4960812;28;20029;-75
2023/06/06 05:53:44;;;;;;;;;;;;;;;12.91;100.00;102041.72;4947782;28;20018;-75
2023/06/06 05:56:10;;;;;;;;;;;;;;;13.05;100.00;102033.53;4961595;28;19945;-73
2023/06/06 05:58:35;;;;;;;;;;;;;;;13.07;100.00;102030.72;4960272;28;20288;-74
2023/06/06 06:01:00;;;;;;;;;;;;;;;13.15;100.00;102035.59;4946908;28;19977;-74
2023/06/06 06:03:26;;;;;;;;;;;;;;;13.32;100.00;102034.41;4944399;28;20052;-73
2023/06/06 06:05:51;;;;;;;;;;;;;;;13.38;100.00;102036.66;4954072;28;19973;-74
2023/06/06 06:08:17;;;;;;;;;;;;;;;13.60;100.00;102037.88;4946637;28;20016;-74
2023/06/06 06:10:42;;;;;;;;;;;;;;;13.63;100.00;102027.72;4944322;28;19927;-72
2023/06/06 06:13:08;;;;;;;;;;;;;;;13.72;100.00;102023.47;4942554;28;19965;-74
2023/06/06 06:15:33;;;;;;;;;;;;;;;13.85;100.00;102030.69;4965444;28;19957;-75
2023/06/06 06:17:59;;;;;;;;;;;;;;;13.89;100.00;102022.25;4943566;28;19922;-73
2023/06/06 06:20:24;;;;;;;;;;;;;;;13.75;100.00;102028.66;4964963;28;19945;-73
2023/06/06 06:22:49;;;;;;;;;;;;;;;13.95;100.00;102026.31;4961962;28;19926;-73
2023/06/06 06:25:16;;;;;;;;;;;;;;;13.99;100.00;102025.13;4952022;28;20301;-73
2023/06/06 06:27:42;;;;;;;;;;;;;;;13.99;100.00;102024.28;4946019;28;20333;-73
2023/06/06 06:30:09;;;;;;;;;;;;;;;14.11;100.00;102026.06;4964847;28;20182;-74
2023/06/06 06:32:34;;;;;;;;;;;;;;;14.35;100.00;102033.31;4956822;28;20312;-73
2023/06/06 06:35:01;;;;;;;;;;;;;;;14.29;100.00;102006.78;4959289;28;19952;-73
2023/06/06 06:37:26;;;;;;;;;;;;;;;14.36;100.00;102029.63;4948160;28;19927;-73
2023/06/06 06:39:51;;;;;;;;;;;;;;;14.36;100.00;102030.50;4948952;28;20398;-73
2023/06/06 06:42:16;;;;;;;;;;;;;;;14.35;100.00;102033.31;4955015;28;20571;-73
2023/06/06 06:44:42;;;;;;;;;;;;;;;14.40;100.00;102042.81;4962916;28;19952;-74
2023/06/06 06:47:09;;;;;;;;;;;;;;;14.45;100.00;102041.56;4944949;28;20802;-76
2023/06/06 06:49:34;;;;;;;;;;;;;;;14.59;100.00;102043.22;4946688;28;19921;-73
2023/06/06 06:52:00;;;;;;;;;;;;;;;14.62;100.00;102048.41;4961896;28;20336;-74
2023/06/06 06:54:26;;;;;;;;;;;;;;;14.73;100.00;102051.19;4960969;28;20065;-73
2023/06/06 06:56:53;;;;;;;;;;;;;;;14.91;100.00;102043.53;4970010;28;20028;-73
2023/06/06 06:59:18;;;;;;;;;;;;;;;15.06;100.00;102046.88;4962335;28;19945;-73
2023/06/06 07:01:49;;;;;;;;;;;;;;;15.18;100.00;102042.34;4958063;28;20428;-72
2023/06/06 07:04:14;;;;;;;;;;;;;;;15.40;100.00;102046.06;4958281;28;19926;-73
2023/06/06 07:06:39;;;;;;;;;;;;;;;15.43;100.00;102046.66;4952498;28;20436;-73
2023/06/06 07:09:05;;;;;;;;;;;;;;;15.52;100.00;102052.34;4965138;28;19977;-73
2023/06/06 07:11:30;;;;;;;;;;;;;;;15.44;100.00;102050.25;4948024;28;19914;-73
2023/06/06 07:13:56;;;;;;;;;;;;;;;15.41;100.00;102018.03;4927036;28;19945;-71
2023/06/06 07:16:23;;;;;;;;;;;;;;;15.70;100.00;102041.88;4963192;28;20198;-75
2023/06/06 07:18:50;;;;;;;;;;;;;;;15.82;100.00;102046.28;4958129;28;20414;-73
2023/06/06 07:21:15;;;;;;;;;;;;;;;16.03;100.00;102041.00;4959229;28;20013;-72
2023/06/06 07:23:40;;;;;;;;;;;;;;;16.23;100.00;102046.63;4947918;28;20514;-74
2023/06/06 07:26:06;;;;;;;;;;;;;;;16.12;100.00;102042.09;4947953;28;19965;-71
2023/06/06 07:28:32;;;;;;;;;;;;;;;16.10;100.00;102043.22;4946740;28;20233;-73
2023/06/06 07:30:58;;;;;;;;;;;;;;;16.29;100.00;102046.13;4959440;28;19977;-73
2023/06/06 07:33:23;;;;;;;;;;;;;;;16.38;100.00;102040.94;4940122;28;20186;-74
2023/06/06 07:35:48;;;;;;;;;;;;;;;16.35;100.00;102036.59;4957796;28;20670;-73
2023/06/06 07:38:13;;;;;;;;;;;;;;;16.50;100.00;102031.75;4956021;28;20668;-71
2023/06/06 07:40:38;;;;;;;;;;;;;;;16.64;100.00;102044.13;4947537;28;19950;-71
2023/06/06 07:43:05;;;;;;;;;;;;;;;16.63;100.00;102037.88;4941824;28;20174;-72
2023/06/06 07:45:30;;;;;;;;;;;;;;;16.51;100.00;102036.19;4946040;28;19947;-74
2023/06/06 07:47:56;;;;;;;;;;;;;;;16.49;100.00;102036.31;4954617;28;19926;-72
2023/06/06 07:50:22;;;;;;;;;;;;;;;16.57;100.00;102034.78;4947556;28;19922;-72
2023/06/06 07:52:47;;;;;;;;;;;;;;;16.74;100.00;102034.25;4946662;28;19929;-72
2023/06/06 07:55:12;;;;;;;;;;;;;;;17.01;100.00;102035.59;4963454;28;19922;-72
2023/06/06 07:57:40;;;;;;;;;;;;;;;17.20;100.00;102020.44;4946208;28;19976;-73
2023/06/06 08:00:10;;;;;;;;;;;;;;;17.25;100.00;102026.31;4948453;28;19934;-72
2023/06/06 08:02:35;;;;;;;;;;;;;;;17.28;100.00;102030.59;4939723;28;19933;-72
2023/06/06 08:05:01;;;;;;;;;;;;;;;17.44;100.00;102024.69;4971633;28;19925;-72
2023/06/06 08:07:26;;;;;;;;;;;;;;;17.60;100.00;102032.31;4972149;28;19929;-73
2023/06/06 08:09:51;;;;;;;;;;;;;;;17.69;100.00;102026.94;4972232;28;19949;-72
2023/06/06 08:12:17;;;;;;;;;;;;;;;17.61;100.00;102031.34;4952313;28;19961;-71
2023/06/06 08:14:42;;;;;;;;;;;;;;;17.78;100.00;102022.53;4944489;28;19927;-72
2023/06/06 08:17:07;;;;;;;;;;;;;;;17.97;100.00;102026.31;4949205;28;19922;-73
2023/06/06 08:19:33;;;;;;;;;;;;;;;17.93;100.00;102027.59;4949959;28;20337;-72
2023/06/06 08:21:58;;;;;;;;;;;;;;;18.08;100.00;102020.78;4966114;28;19942;-72
2023/06/06 08:24:23;;;;;;;;;;;;;;;18.20;100.00;102029.66;4954929;28;19926;-72
2023/06/06 08:26:48;;;;;;;;;;;;;;;18.27;100.00;102016.38;4972625;28;19969;-72
2023/06/06 08:29:14;;;;;;;;;;;;;;;18.42;100.00;102020.38;4947605;28;19953;-73
2023/06/06 08:31:40;;;;;;;;;;;;;;;18.33;100.00;102017.66;4948013;28;19922;-72
2023/06/06 08:34:05;;;;;;;;;;;;;;;18.41;100.00;102021.38;4966326;28;20297;-72
2023/06/06 08:36:31;;;;;;;;;;;;;;;18.48;100.00;102016.22;4955534;28;19964;-71
2023/06/06 08:38:56;;;;;;;;;;;;;;;18.61;98.96;102015.94;4953745;28;19922;-75
2023/06/06 08:41:21;;;;;;;;;;;;;;;18.77;100.00;102020.78;4948544;28;20284;-73
2023/06/06 08:43:47;;;;;;;;;;;;;;;18.92;99.75;102017.66;4949404;28;19933;-74
2023/06/06 08:46:13;;;;;;;;;;;;;;;19.03;98.37;102018.38;4954703;28;19922;-71
2023/06/06 08:48:38;;;;;;;;;;;;;;;19.10;98.57;102017.75;4956540;28;19922;-71
2023/06/06 08:51:03;;;;;;;;;;;;;;;19.21;96.67;102014.00;4955057;28;19922;-71
2023/06/06 08:53:29;;;;;;;;;;;;;;;19.36;96.27;102009.81;4970906;28;19926;-70
2023/06/06 08:55:55;;;;;;;;;;;;;;;19.43;99.51;102010.94;4967975;28;22148;-71
2023/06/06 08:58:20;;;;;;;;;;;;;;;19.59;96.97;102010.28;4959803;28;20029;-72
2023/06/06 09:00:46;;;;;;;;;;;;;;;19.73;90.72;102011.63;4967234;28;19961;-70
2023/06/06 09:03:12;;;;;;;;;;;;;;;19.69;92.51;102012.97;4963047;28;19926;-72
2023/06/06 09:05:40;;;;;;;;;;;;;;;19.79;94.83;102004.72;4968079;28;19926;-72
2023/06/06 09:08:06;;;;;;;;;;;;;;;19.82;89.77;102009.00;4951779;28;19992;-72
2023/06/06 09:10:31;;;;;;;;;;;;;;;19.83;94.34;102011.59;4971812;28;20400;-73
2023/06/06 09:12:56;;;;;;;;;;;;;;;19.92;90.42;101982.59;4956229;28;20276;-72
2023/06/06 09:15:21;;;;;;;;;;;;;;;20.34;91.07;102013.88;4969236;28;20613;-70
2023/06/06 09:17:48;;;;;;;;;;;;;;;20.35;94.41;102004.66;4970728;28;20325;-72
2023/06/06 09:20:15;;;;;;;;;;;;;;;20.61;91.93;102012.91;4934339;28;19922;-74
2023/06/06 09:22:44;;;;;;;;;;;;;;;20.63;80.69;102007.31;4948406;28;19926;-72
2023/06/06 09:25:15;;;;;;;;;;;;;;;20.81;83.83;102016.34;4948027;28;20397;-72
2023/06/06 09:27:40;;;;;;;;;;;;;;;20.63;74.81;102010.88;4950749;28;20110;-72
2023/06/06 09:30:08;;;;;;;;;;;;;;;20.88;83.90;102005.63;4952553;28;19961;-72
2023/06/06 09:32:33;;;;;;;;;;;;;;;20.95;79.45;102005.84;4948004;28;19922;-72
2023/06/06 09:35:03;;;;;;;;;;;;;;;20.88;76.75;102004.78;4954493;28;19929;-72
2023/06/06 09:37:28;;;;;;;;;;;;;;;20.85;80.08;102002.38;4947039;28;20009;-71
2023/06/06 09:39:53;;;;;;;;;;;;;;;;;;4948972;28;19919;-72
2023/06/06 09:42:18;;;;;;;;;;;;;;;21.21;80.38;102005.84;4948264;28;20463;-72
2023/06/06 09:44:43;;;;;;;;;;;;;;;21.31;81.47;101999.44;4953040;28;19926;-72
2023/06/06 09:47:08;;;;;;;;;;;;;;;21.59;84.93;101997.34;4964575;28;19930;-72
2023/06/06 09:49:34;;;;;;;;;;;;;;;21.92;83.71;101997.47;4956181;28;19922;-72
2023/06/06 09:51:59;;;;;;;;;;;;;;;21.70;78.46;101993.47;4968949;28;19929;-72
2023/06/06 09:54:25;;;;;;;;;;;;;;;21.91;76.73;101993.03;4950288;28;20365;-71
2023/06/06 09:56:50;;;;;;;;;;;;;;;22.02;73.93;101986.41;4949227;28;20308;-71
2023/06/06 09:59:15;;;;;;;;;;;;;;;22.10;70.90;101989.16;4978290;28;20399;-72
2023/06/06 10:01:42;;;;;;;;;;;;;;;22.34;68.61;101987.47;4941665;28;20273;-71
2023/06/06 10:04:07;;;;;;;;;;;;;;;22.21;74.19;101981.63;4963012;28;20376;-72
2023/06/06 10:06:38;;;;;;;;;;;;;;;22.42;66.31;101981.97;4952745;28;19922;-71
2023/06/06 10:09:05;;;;;;;;;;;;;;;22.67;67.22;101975.69;4968258;28;19922;-71
2023/06/06 10:11:30;;;;;;;;;;;;;;;22.83;75.08;101991.25;4949944;28;19945;-71
2023/06/06 10:13:56;;;;;;;;;;;;;;;23.03;72.29;101983.53;4970550;28;20377;-71
2023/06/06 10:16:21;;;;;;;;;;;;;;;23.06;65.45;101977.66;4959651;28;20288;-71
2023/06/06 10:18:49;;;;;;;;;;;;;;;22.99;63.64;101979.41;4956427;28;20419;-72
2023/06/06 10:21:15;;;;;;;;;;;;;;;23.35;66.90;101982.59;4972106;28;19965;-71
2023/06/06 10:23:41;;;;;;;;;;;;;;;23.48;63.25;101981.16;4957389;28;19936;-72
2023/06/06 10:26:06;;;;;;;;;;;;;;;23.55;67.99;101973.94;4952255;28;19926;-71
2023/06/06 10:28:35;;;;;;;;;;;;;;;23.66;69.74;101972.69;4963909;28;20382;-72
2023/06/06 10:31:02;;;;;;;;;;;;;;;23.98;67.84;101969.94;4941656;28;19926;-71
2023/06/06 10:33:29;;;;;;;;;;;;;;;24.38;61.15;101971.53;4961071;28;20808;-73
2023/06/06 10:36:01;;;;;;;;;;;;;;;24.33;62.94;101970.41;4927530;28;19987;-71
2023/06/06 10:38:26;;;;;;;;;;;;;;;24.50;60.23;101962.88;4954473;28;19922;-72
2023/06/06 10:40:53;;;;;;;;;;;;;;;24.45;61.20;101973.56;4946696;28;19991;-70
2023/06/06 10:43:34;;;;;;;;;;;;;;;24.64;56.70;101972.19;4940908;28;19926;-71
2023/06/06 10:45:59;;;;;;;;;;;;;;;24.88;58.57;101975.78;4951193;28;19926;-72
2023/06/06 10:48:40;;;;;;;;;;;;;;;24.84;58.18;101976.13;4948007;28;19921;-74
2023/06/06 10:51:25;;;;;;;;;;;;;;;24.97;53.34;101967.25;4948117;28;19966;-73
2023/06/06 10:54:09;;;;;;;;;;;;;;;25.57;54.00;101970.00;4949409;28;19918;-73
2023/06/06 10:56:34;;;;;;;;;;;;;;;26.04;55.93;101962.28;4948828;28;19926;-73
2023/06/06 10:58:59;;;;;;;;;;;;;;;26.20;51.75;101960.34;4943911;28;20906;-72
2023/06/06 11:01:26;;;;;;;;;;;;;;;26.44;48.02;101963.75;4953007;28;20024;-70
2023/06/06 11:03:51;;;;;;;;;;;;;;;26.53;48.18;101961.69;4955016;28;19926;-71
2023/06/06 11:06:19;;;;;;;;;;;;;;;26.60;49.51;101952.47;4973200;28;19925;-72
2023/06/06 11:08:56;;;;;;;;;;;;;;;26.77;46.74;101963.16;4971143;28;20017;-72
2023/06/06 11:11:29;;;;;;;;;;;;;;;26.84;44.81;101958.59;4955217;28;20467;-70
2023/06/06 11:14:04;;;;;;;;;;;;;;;26.50;49.22;101954.69;4946774;28;19929;-72
2023/06/06 11:16:39;;;;;;;;;;;;;;;27.28;47.73;101955.66;4952391;28;20018;-72
2023/06/06 11:19:08;;;;;;;;;;;;;;;27.48;47.39;101953.03;4953029;28;19922;-73
2023/06/06 11:21:36;;;;;;;;;;;;;;;27.54;46.00;101950.28;4948324;28;19918;-72
2023/06/06 11:24:05;;;;;;;;;;;;;;;27.65;46.14;101950.75;4947252;28;19965;-72
2023/06/06 11:26:32;;;;;;;;;;;;;;;28.26;47.87;101941.56;4963868;28;19951;-70
2023/06/06 11:28:57;;;;;;;;;;;;;;;28.62;46.69;101944.09;4964585;28;19964;-69
2023/06/06 11:31:23;;;;;;;;;;;;;;;28.54;47.39;101946.03;4965103;28;20381;-71
2023/06/06 11:33:48;;;;;;;;;;;;;;;28.81;46.07;101946.03;4944648;28;20370;-73
2023/06/06 11:36:13;;;;;;;;;;;;;;;29.12;41.69;101952.75;4945301;28;19926;-69
2023/06/06 11:38:45;;;;;;;;;;;;;;;28.79;41.69;101923.28;4944702;28;20370;-71
2023/06/06 11:41:10;;;;;;;;;;;;;;;29.09;43.35;101939.38;4960837;28;19926;-67
2023/06/06 11:43:35;;;;;;;;;;;;;;;29.51;41.78;101944.56;4951319;28;20527;-69
2023/06/06 11:46:06;;;;;;;;;;;;;;;29.14;41.09;101941.47;4949520;28;20313;-69
2023/06/06 11:48:33;;;;;;;;;;;;;;;29.69;41.31;101935.50;4947678;28;19978;-69
2023/06/06 11:51:08;;;;;;;;;;;;;;;29.89;39.31;101938.16;4947119;28;20381;-71
2023/06/06 11:53:34;;;;;;;;;;;;;;;30.60;40.96;101932.53;4946483;28;19926;-69
2023/06/06 11:55:59;;;;;;;;;;;;;;;30.64;40.07;101932.94;4952065;28;20418;-69
2023/06/06 11:58:25;;;;;;;;;;;;;;;30.05;40.12;101927.66;4951415;28;19976;-69
2023/06/06 12:00:56;;;;;;;;;;;;;;;29.65;41.42;101933.41;4948909;28;20414;-69
2023/06/06 12:03:22;;;;;;;;;;;;;;;29.55;42.61;101931.97;4950092;28;19932;-71
2023/06/06 12:06:06;;;;;;;;;;;;;;;29.82;40.23;101934.56;4966303;28;20316;-70
2023/06/06 12:08:33;;;;;;;;;;;;;;;30.16;42.65;101917.78;4948680;28;19926;-68
2023/06/06 12:11:18;;;;;;;;;;;;;;;30.19;41.54;101920.94;4954080;28;19922;-71
2023/06/06 12:13:43;;;;;;;;;;;;;;;30.51;43.99;101923.66;4952385;28;19937;-68
2023/06/06 12:16:08;;;;;;;;;;;;;;;30.95;39.55;101925.56;4950583;28;19949;-70
2023/06/06 12:18:34;;;;;;;;;;;;;;;31.77;37.02;101924.38;4950596;28;19922;-71
2023/06/06 12:21:06;;;;;;;;;;;;;;;31.66;37.29;101916.81;4949233;28;19968;-72
2023/06/06 12:23:31;;;;;;;;;;;;;;;31.45;39.55;101923.72;4973534;28;19926;-69
2023/06/06 12:25:57;;;;;;;;;;;;;;;31.35;39.44;101924.28;4964770;28;20479;-72